• Join FlightAware (Why Join?)
  • Login
  • US Flag GB Flag 
13:35 EST


 

Airport Tracker/Info


-or-


 

Live Flight TrackerFlight Track Log ✈ SKW6528 ✈ 29-Apr-2013 ✈ KDEN - KSGF

Flight Track Log - Related Links

Times and Time Zones

All times are in EDT time to prevent confusion due to time zone crossing. See the SKW6528 flight status page for this flight to view local times or setup timezone preferences in your user account.

Time Position Orientation Groundspeed Altitude Reporting Facility
EDT Latitude Longitude Course Direction KTS MPH feet Rate Location/Type
12:17 39.7219 -103.8964 103° East  Level Estimated
12:18 39.6933 -103.7414 103° East  Level Estimated
12:19 39.6645 -103.5866 104° East  Level Estimated
12:20 39.6355 -103.4319 104° East  Level Estimated
12:21 39.6063 -103.2773 104° East  Level Estimated
12:22 39.5769 -103.1228 104° East  Level Estimated
12:23 39.5473 -102.9685 104° East  Level Estimated
12:24 39.5175 -102.8143 104° East  Level Estimated
12:25 39.4874 -102.6603 104° East  Level Estimated
12:26 39.4572 -102.5064 104° East  Level Estimated
12:27 39.4268 -102.3526 104° East  Level Estimated
12:28 39.3962 -102.1989 104° East  Level Estimated
12:29 39.3654 -102.0454 105° East  Level Estimated
12:30 39.3343 -101.8920 105° East  Level Estimated
12:31 39.3031 -101.7388 105° East  Level Estimated
12:32 39.2717 -101.5857 105° East  Level Estimated
12:33 39.2400 -101.4327 105° East  Level Estimated
12:34 39.2082 -101.2799 105° East  Level Estimated
12:35 39.1762 -101.1272 105° East  Level Estimated
12:36 39.1440 -100.9746 105° East  Level Estimated
12:37 39.1115 -100.8222 105° East  Level Estimated
12:38 39.0789 -100.6699 105° East  Level Estimated
12:39 39.0461 -100.5178 105° East  Level Estimated
12:40 39.0131 -100.3658 106° East  Level Estimated
12:41 38.9798 -100.2139 106° East  Level Estimated
12:42 38.9464 -100.0622 106° East  Level Estimated
12:43 38.9128 -99.9107 106° East  Level Estimated
12:44 38.8790 -99.7592 106° East  Level Estimated
12:45 38.8450 -99.6080 106° East  Level Estimated
12:46 38.8108 -99.4568 106° East  Level Estimated
12:47 38.7764 -99.3059 106° East  Level Estimated
12:48 38.7418 -99.1550 106° East  Level Estimated
12:49 38.7070 -99.0043 106° East  Level Estimated
12:50 38.6721 -98.8538 107° East  Level Estimated
12:51 38.6369 -98.7034 107° East  Level Estimated
12:52 38.6016 -98.5531 107° East  Level Estimated
12:53 38.5660 -98.4030 107° East  Level Estimated
12:54 38.5303 -98.2531 107° East  Level Estimated
12:55 38.4943 -98.1033 107° East  Level Estimated
12:56 38.4582 -97.9536 107° East  Level Estimated
12:57 38.4219 -97.8041 107° East  Level Estimated
12:58 38.3854 -97.6548 107° East  Level Estimated
12:59 38.3487 -97.5056 107° East  Level Estimated
13:00 38.3118 -97.3565 107° East  Level Estimated
13:01 38.2748 -97.2076 108° East  Level Estimated
13:02 38.2375 -97.0589 108° East  Level Estimated
13:03 38.2001 -96.9103 108° East  Level Estimated
13:04 38.1624 -96.7618 108° East  Level Estimated
13:05 38.1246 -96.6136 108° East  Level Estimated
13:06 38.0866 -96.4654 108° East  Level Estimated
13:07 38.0484 -96.3175 108° East  Level Estimated
13:08 38.0100 -96.1696 108° East  Level Estimated
13:09 37.9715 -96.0220 108° East  Level Estimated
13:10 37.9327 -95.8745 108° East  Level Estimated
13:11 37.8938 -95.7271 108° East  Level Estimated
13:12 37.8547 -95.5799 109° East  Level Estimated
13:13 37.8154 -95.4329 109° East  Level Estimated
13:14 37.7759 -95.2860 109° East  Level Estimated
13:15 37.7363 -95.1392 109° East  Level Estimated
13:16 37.6964 -94.9927 109° East  Level Estimated
13:17 37.6564 -94.8462 109° East  Level Estimated
13:18 37.6162 -94.7000 109° East  Level Estimated
13:19 37.5758 -94.5539 109° East  Level Estimated
13:20 37.5353 -94.4079 109° East  Level Estimated
13:21 37.4945 -94.2622 109° East  Level Estimated
13:22 37.4536 -94.1165 109° East  Level Estimated
13:23 37.4125 -93.9711 110° East  Level Estimated
13:24 37.3712 -93.8258 110° East  Level Estimated
13:25 37.3298 -93.6806 110° East  Level Estimated
13:26 37.2881 -93.5357 110° East  Level Estimated
13:27 37.2463 -93.3908 110° East  Level Estimated
13:28 37.2457 -93.3886 110° East  Level Estimated
13:29 37.2457 -93.3886 165° South  Level Estimated
13:30 37.2457 -93.3886 165° South  Level Estimated
13:31 37.2457 -93.3886 165° South  Level Estimated
13:32 37.2457 -93.3886 165° South  Level Estimated